Portada
METAR-TAF:

METAR-TAF

Aeroports :

Lleó, Espanya

latitud: 42-35N, longitud: 005-39W, altitud: 926 m

Observació

L'informe es va fer fa 25 minuts, a les 08:30 UTC
Vent 4 kt del Nord-Est, variant entre Nord i Est
Temperatura 11°C
Humitat 50%
Pressió 1026 hPa
Visibilitat 10 km o més
sense núvols per sota de 1500 mi sense presència de cumulonimbus.

METAR: LELN 240830Z 04004KT 010V080 CAVOK 11/01 Q1026

Hora: 09:55 (08:55 UTC)

Pronòstic

L'informe es va fer fa 55 minuts, a les 08:00 UTC
Pronòstic vàlid del 24 a les 09 UTC al 24 a les 18 UTC
Vent 10 kt del Est
Visibilitat 10 km o més
sense núvols per sota de 1500 mi sense presència de cumulonimbus.

TAF: LELN 240800Z 2409/2418 09010KT CAVOK

Observacions i pronòstics meteorològics de més de 4000 aeroports (METAR i TAF).

Les estacions disponibles són els punts grocs i vermells al mapa.

Posi el ratolí al punt desitjat per veure el nom de l'estació.

Feu clic per veure les observacions i els pronòstics meteorològics.

Per canviar el mapa: feu clic els botons verds amb una creu de color negre per apropar; al botó verd amb un guió per allunyar la imatge; o en les fletxes verdes per a mapes adjacents.


METAR-TAF: